createdAt,value
2018-06-08T00:00:20.477Z,3.00
2018-06-08T00:02:48.383Z,3.17
2018-06-08T00:05:16.284Z,2.80
2018-06-08T00:07:44.099Z,3.23
2018-06-08T00:10:12.033Z,2.80
2018-06-08T00:12:39.812Z,3.43
2018-06-08T00:15:07.624Z,3.23
2018-06-08T00:17:35.704Z,2.40
2018-06-08T00:20:03.460Z,2.93
2018-06-08T00:22:31.343Z,2.80
2018-06-08T00:24:59.120Z,2.50
2018-06-08T00:27:27.008Z,2.47
2018-06-08T00:29:54.736Z,2.90
2018-06-08T00:32:22.598Z,2.43
2018-06-08T00:34:50.362Z,2.43
2018-06-08T00:37:17.943Z,2.77
2018-06-08T00:39:45.682Z,2.37
2018-06-08T00:42:13.575Z,2.63
2018-06-08T00:44:41.428Z,3.23
2018-06-08T00:47:09.024Z,2.87
2018-06-08T00:49:36.628Z,2.40
2018-06-08T00:52:04.424Z,2.73
2018-06-08T00:54:32.180Z,2.70
2018-06-08T00:57:07.509Z,2.40
2018-06-08T00:59:35.530Z,2.77
2018-06-08T01:02:03.184Z,2.70
2018-06-08T01:04:31.108Z,2.93
2018-06-08T01:06:58.997Z,2.70
2018-06-08T01:09:26.879Z,3.07
2018-06-08T01:11:54.840Z,2.80
2018-06-08T01:14:27.948Z,3.00
2018-06-08T01:16:55.796Z,3.10
2018-06-08T01:19:23.680Z,3.10
2018-06-08T01:21:51.315Z,2.80
2018-06-08T01:24:18.973Z,2.70
2018-06-08T01:26:46.562Z,2.70
2018-06-08T01:29:14.416Z,2.40
2018-06-08T01:31:42.010Z,3.43
2018-06-08T01:34:09.856Z,2.57
2018-06-08T01:36:37.753Z,3.20
2018-06-08T01:39:06.792Z,3.00
2018-06-08T01:41:34.496Z,2.70
2018-06-08T01:44:02.385Z,3.13
2018-06-08T01:46:30.100Z,2.70
2018-06-08T01:48:57.876Z,3.30
2018-06-08T01:51:25.693Z,2.77
2018-06-08T01:53:53.519Z,2.93
2018-06-08T01:56:21.316Z,3.00
2018-06-08T01:58:49.159Z,2.87
2018-06-08T02:01:17.106Z,2.93
2018-06-08T02:03:45.021Z,3.00
2018-06-08T02:06:12.891Z,2.97
2018-06-08T02:08:40.661Z,3.00
2018-06-08T02:11:08.612Z,3.40
2018-06-08T02:13:36.493Z,3.27
2018-06-08T02:16:04.332Z,3.57
2018-06-08T02:18:32.184Z,3.30
2018-06-08T02:21:00.071Z,3.13
2018-06-08T02:23:27.932Z,3.27
2018-06-08T02:25:55.916Z,3.63
2018-06-08T02:28:23.770Z,3.10
2018-06-08T02:30:51.673Z,3.90
2018-06-08T02:33:19.419Z,3.00
2018-06-08T02:35:47.607Z,4.00
2018-06-08T02:38:15.936Z,3.40
2018-06-08T02:40:43.738Z,3.37
2018-06-08T02:43:11.810Z,3.00
2018-06-08T02:45:39.469Z,3.10
2018-06-08T02:48:07.323Z,2.87
2018-06-08T02:50:35.212Z,3.73
2018-06-08T02:53:03.124Z,3.60
2018-06-08T02:55:30.921Z,3.20
2018-06-08T02:57:58.589Z,3.20
2018-06-08T03:00:26.501Z,3.67
2018-06-08T03:02:54.368Z,3.07
2018-06-08T03:05:22.218Z,4.00
2018-06-08T03:07:50.063Z,4.03
2018-06-08T03:10:17.844Z,3.27
2018-06-08T03:12:45.725Z,3.37
2018-06-08T03:15:13.552Z,3.07
2018-06-08T03:17:41.428Z,3.43
2018-06-08T03:20:09.300Z,3.43
2018-06-08T03:22:37.170Z,3.30
2018-06-08T03:38:10.624Z,3.33
2018-06-08T03:40:38.412Z,3.43
2018-06-08T03:43:06.204Z,4.00
2018-06-08T03:45:34.069Z,3.70
2018-06-08T03:48:01.820Z,3.43
2018-06-08T03:50:29.780Z,3.73
2018-06-08T03:52:57.672Z,3.83
2018-06-08T03:55:26.105Z,3.60
2018-06-08T03:57:53.789Z,3.57
2018-06-08T04:00:21.608Z,3.50
2018-06-08T04:02:49.454Z,3.63
2018-06-08T04:05:17.312Z,3.70
2018-06-08T04:07:45.151Z,3.87
2018-06-08T04:10:12.984Z,3.37
2018-06-08T04:12:41.046Z,3.60
2018-06-08T04:15:08.916Z,4.53
2018-06-08T04:17:39.520Z,3.70
2018-06-08T04:20:07.439Z,4.03
2018-06-08T04:22:35.380Z,4.40
2018-06-08T04:25:03.160Z,4.28
2018-06-08T04:27:30.991Z,3.83
2018-06-08T04:29:58.925Z,4.72
2018-06-08T04:32:26.729Z,4.95
2018-06-08T04:34:54.805Z,6.12
2018-06-08T04:37:22.673Z,5.85
2018-06-08T04:39:50.584Z,7.33
2018-06-08T04:42:18.348Z,6.62
2018-06-08T04:44:46.197Z,6.30
2018-06-08T04:47:14.244Z,5.33
2018-06-08T04:49:42.012Z,5.25
2018-06-08T04:52:09.910Z,5.50
2018-06-08T04:54:37.820Z,5.30
2018-06-08T04:57:06.232Z,4.70
2018-06-08T04:59:34.184Z,5.37
2018-06-08T05:02:01.983Z,4.70
2018-06-08T05:04:29.835Z,5.53
2018-06-08T05:06:57.866Z,5.30
2018-06-08T05:09:25.734Z,5.58
2018-06-08T05:11:53.901Z,5.33
2018-06-08T05:14:21.673Z,5.10
2018-06-08T05:16:49.897Z,5.75
2018-06-08T05:19:17.801Z,5.22
2018-06-08T05:21:45.524Z,5.65
2018-06-08T05:24:13.426Z,5.85
2018-06-08T05:26:41.137Z,5.53
2018-06-08T05:29:09.072Z,5.58
2018-06-08T05:31:37.203Z,5.60
2018-06-08T05:34:05.438Z,5.55
2018-06-08T05:36:33.081Z,5.92
2018-06-08T05:39:00.727Z,6.45
2018-06-08T05:41:28.382Z,6.65
2018-06-08T05:43:56.328Z,6.65
2018-06-08T05:46:24.239Z,7.17
2018-06-08T05:48:52.082Z,9.08
2018-06-08T05:51:19.803Z,8.15
2018-06-08T05:53:47.554Z,9.58
2018-06-08T05:56:15.207Z,8.00
2018-06-08T05:58:42.907Z,7.28
2018-06-08T06:01:10.570Z,7.12
2018-06-08T06:03:38.291Z,7.28
2018-06-08T06:06:06.145Z,6.80
2018-06-08T06:08:34.022Z,7.65
2018-06-08T06:11:02.488Z,7.72
2018-06-08T06:13:30.130Z,8.18
2018-06-08T06:15:57.856Z,7.58
2018-06-08T06:18:25.728Z,7.47
2018-06-08T06:20:54.033Z,7.90
2018-06-08T06:23:21.897Z,7.97
2018-06-08T06:25:50.234Z,8.50
2018-06-08T06:28:18.217Z,7.58
2018-06-08T06:30:46.222Z,8.08
2018-06-08T06:33:13.964Z,8.10
2018-06-08T06:35:41.821Z,7.80
2018-06-08T06:38:09.727Z,8.20
2018-06-08T06:40:37.739Z,7.90
2018-06-08T06:43:05.607Z,7.92
2018-06-08T06:45:34.114Z,7.95
2018-06-08T06:48:02.507Z,8.03
2018-06-08T06:50:30.799Z,7.40
2018-06-08T06:52:59.491Z,6.80
2018-06-08T06:55:28.629Z,8.03
2018-06-08T06:57:57.714Z,7.03
2018-06-08T07:00:26.707Z,7.10
2018-06-08T07:02:54.846Z,7.40
2018-06-08T07:05:22.723Z,7.40
2018-06-08T07:07:50.637Z,8.00
2018-06-08T07:10:19.254Z,7.12
2018-06-08T07:12:47.606Z,7.53
2018-06-08T07:15:16.368Z,7.10
2018-06-08T07:17:45.788Z,7.20
2018-06-08T07:20:13.996Z,7.08
2018-06-08T07:22:42.143Z,7.00
2018-06-08T07:25:11.120Z,7.12
2018-06-08T07:27:40.180Z,6.58
2018-06-08T07:30:08.290Z,6.55
2018-06-08T07:32:36.360Z,6.60
2018-06-08T07:35:04.453Z,6.12
2018-06-08T07:37:34.428Z,6.00
2018-06-08T07:40:02.307Z,5.67
2018-06-08T07:42:30.291Z,5.58
2018-06-08T07:44:58.309Z,5.80
2018-06-08T07:47:27.374Z,5.17
2018-06-08T07:49:56.364Z,5.67
2018-06-08T07:52:24.948Z,6.28
2018-06-08T07:54:53.740Z,5.95
2018-06-08T07:57:21.792Z,5.45
2018-06-08T07:59:49.756Z,5.72
2018-06-08T08:02:17.980Z,5.15
2018-06-08T08:04:46.697Z,5.00
2018-06-08T08:07:15.267Z,4.60
2018-06-08T08:09:43.860Z,4.50
2018-06-08T08:12:12.559Z,5.08
2018-06-08T08:14:40.645Z,5.75
2018-06-08T08:17:08.658Z,5.20
2018-06-08T08:19:36.581Z,5.35
2018-06-08T08:22:04.657Z,4.83
2018-06-08T08:24:33.199Z,4.65
2018-06-08T08:27:01.391Z,5.53
2018-06-08T08:29:33.798Z,5.22
2018-06-08T08:32:01.759Z,4.78
2018-06-08T08:34:31.306Z,4.62
2018-06-08T08:36:59.270Z,4.30
2018-06-08T08:39:27.400Z,4.35
2018-06-08T08:41:55.915Z,4.15
2018-06-08T08:44:24.596Z,4.97
2018-06-08T08:46:53.579Z,4.35
2018-06-08T08:49:21.649Z,4.37
2018-06-08T08:52:13.156Z,4.22
2018-06-08T08:54:42.917Z,4.20
2018-06-08T08:57:11.535Z,4.37
2018-06-08T08:59:40.205Z,3.87
2018-06-08T09:02:08.288Z,3.65
2018-06-08T09:04:36.968Z,3.95
2018-06-08T09:07:05.704Z,4.60
2018-06-08T09:09:38.856Z,4.65
2018-06-08T09:12:06.949Z,4.22
2018-06-08T09:14:34.896Z,3.95
2018-06-08T09:17:02.762Z,4.17
2018-06-08T09:19:30.795Z,4.08
2018-06-08T09:21:58.750Z,4.10
2018-06-08T09:24:26.672Z,3.55
2018-06-08T09:26:55.976Z,4.10
2018-06-08T09:29:23.972Z,4.40
2018-06-08T09:31:52.202Z,4.53
2018-06-08T09:34:20.356Z,4.22
2018-06-08T09:36:49.156Z,4.25
2018-06-08T09:39:17.339Z,4.50
2018-06-08T09:41:45.138Z,4.15
2018-06-08T09:44:13.256Z,4.47
2018-06-08T09:46:41.257Z,4.67
2018-06-08T09:49:09.400Z,4.22
2018-06-08T09:51:37.423Z,4.40
2018-06-08T09:54:06.115Z,3.95
2018-06-08T09:56:34.229Z,4.72
2018-06-08T09:59:02.500Z,4.92
2018-06-08T10:01:30.472Z,4.58
2018-06-08T10:03:58.576Z,4.65
2018-06-08T10:06:27.607Z,4.40
2018-06-08T10:08:55.737Z,4.90
2018-06-08T10:11:24.325Z,4.90
2018-06-08T10:13:52.317Z,4.55
2018-06-08T10:16:20.205Z,5.08
2018-06-08T10:18:48.412Z,5.05
2018-06-08T10:21:16.429Z,4.65
2018-06-08T10:23:45.282Z,4.92
2018-06-08T10:26:13.264Z,5.12
2018-06-08T10:28:41.178Z,4.55
2018-06-08T10:31:09.166Z,4.92
2018-06-08T10:33:49.092Z,5.45
2018-06-08T10:36:17.172Z,4.90
2018-06-08T10:38:45.051Z,4.75
2018-06-08T10:41:13.015Z,4.60
2018-06-08T10:43:41.756Z,4.72
2018-06-08T10:46:09.808Z,4.55
2018-06-08T10:48:39.022Z,4.85
2018-06-08T10:51:07.055Z,5.17
2018-06-08T10:53:35.748Z,5.00
2018-06-08T10:56:04.372Z,4.78
2018-06-08T11:31:04.380Z,4.80
2018-06-08T11:33:32.385Z,4.65
2018-06-08T11:36:00.757Z,4.53
2018-06-08T11:38:29.408Z,5.35
2018-06-08T11:40:57.433Z,5.40
2018-06-08T11:43:25.466Z,4.53
2018-06-08T11:45:54.105Z,4.97
2018-06-08T11:48:22.235Z,5.03
2018-06-08T11:50:50.944Z,4.58
2018-06-08T11:53:19.019Z,5.25
2018-06-08T11:55:46.929Z,5.25
2018-06-08T11:58:14.988Z,5.37
2018-06-08T12:00:43.728Z,5.15
2018-06-08T12:03:12.128Z,5.83
2018-06-08T12:05:40.095Z,5.65
2018-06-08T12:08:08.137Z,6.37
2018-06-08T12:10:36.844Z,6.15
2018-06-08T12:13:04.786Z,5.45
2018-06-08T12:15:33.260Z,6.15
2018-06-08T12:18:01.866Z,5.47
2018-06-08T12:20:29.812Z,5.72
2018-06-08T12:22:57.897Z,4.95
2018-06-08T12:25:26.514Z,5.65
2018-06-08T12:27:54.985Z,5.47
2018-06-08T12:30:22.966Z,5.83
2018-06-08T12:32:51.648Z,6.08
2018-06-08T12:35:19.589Z,6.58
2018-06-08T12:37:47.541Z,6.53
2018-06-08T12:40:15.566Z,6.25
2018-06-08T12:42:43.589Z,6.72
2018-06-08T12:45:12.192Z,6.35
2018-06-08T12:47:40.511Z,6.42
2018-06-08T12:50:08.681Z,6.03
2018-06-08T12:52:36.709Z,6.12
2018-06-08T12:55:06.528Z,6.28
2018-06-08T12:57:35.691Z,5.70
2018-06-08T13:00:04.244Z,5.95
2018-06-08T13:02:33.116Z,6.35
2018-06-08T13:05:01.419Z,8.28
2018-06-08T13:07:29.794Z,6.28
2018-06-08T13:09:58.409Z,6.33
2018-06-08T13:12:26.458Z,5.80
2018-06-08T13:14:56.789Z,5.70
2018-06-08T13:17:25.091Z,5.85
2018-06-08T13:19:54.057Z,7.03
2018-06-08T13:22:21.868Z,6.87
2018-06-08T13:24:50.265Z,6.15
2018-06-08T13:27:20.302Z,6.42
2018-06-08T13:29:50.244Z,6.62
2018-06-08T13:32:18.502Z,6.85
2018-06-08T13:34:47.700Z,7.28
2018-06-08T13:37:15.732Z,7.35
2018-06-08T13:39:43.835Z,7.03
2018-06-08T13:42:12.073Z,6.30
2018-06-08T13:44:40.258Z,6.33
2018-06-08T13:47:08.269Z,7.33
2018-06-08T13:49:37.785Z,6.35
2018-06-08T13:52:06.341Z,6.45
2018-06-08T13:54:34.308Z,6.75
2018-06-08T13:57:02.877Z,6.22
2018-06-08T13:59:30.784Z,6.95
2018-06-08T14:02:00.450Z,6.90
2018-06-08T14:04:30.176Z,6.37
2018-06-08T14:07:00.629Z,6.55
2018-06-08T14:09:29.228Z,6.17
2018-06-08T14:11:57.238Z,6.80
2018-06-08T14:24:10.260Z,6.10
2018-06-08T14:26:42.643Z,6.08
2018-06-08T14:29:19.286Z,6.62
2018-06-08T14:31:47.224Z,6.60
2018-06-08T14:34:15.992Z,6.12
2018-06-08T14:36:43.853Z,6.12
2018-06-08T14:39:12.071Z,6.70
2018-06-08T14:41:40.049Z,6.45
2018-06-08T14:44:07.931Z,5.97
2018-06-08T14:46:35.798Z,6.03
2018-06-08T14:49:03.831Z,6.53
2018-06-08T14:51:32.166Z,7.30
2018-06-08T14:54:00.286Z,6.87
2018-06-08T14:56:28.268Z,7.50
2018-06-08T14:58:56.127Z,6.90
2018-06-08T15:01:24.230Z,7.30
2018-06-08T15:03:52.109Z,6.87
2018-06-08T15:06:19.964Z,7.20
2018-06-08T15:08:47.858Z,6.80
2018-06-08T15:11:16.853Z,7.28
2018-06-08T15:13:45.406Z,6.78
2018-06-08T15:16:13.172Z,6.75
2018-06-08T15:18:41.909Z,6.72
2018-06-08T15:21:10.440Z,7.28
2018-06-08T15:23:38.372Z,7.00
2018-06-08T15:26:06.844Z,6.90
2018-06-08T15:28:34.890Z,6.00
2018-06-08T15:31:03.549Z,5.92
2018-06-08T15:33:32.395Z,5.85
2018-06-08T15:36:00.569Z,7.00
2018-06-08T15:38:29.842Z,6.12
2018-06-08T15:40:57.886Z,7.40
2018-06-08T15:43:25.866Z,6.22
2018-06-08T15:45:53.904Z,6.22
2018-06-08T15:48:21.828Z,6.20
2018-06-08T15:50:49.803Z,5.95
2018-06-08T15:53:17.724Z,7.00
2018-06-08T15:55:46.309Z,7.65
2018-06-08T15:58:15.272Z,6.87
2018-06-08T16:00:43.158Z,6.72
2018-06-08T16:03:11.516Z,6.72
2018-06-08T16:05:39.784Z,6.53
2018-06-08T16:08:08.902Z,7.45
2018-06-08T16:10:36.907Z,6.97
2018-06-08T16:13:06.451Z,6.28
2018-06-08T16:15:34.379Z,7.00
2018-06-08T16:18:02.401Z,6.95
2018-06-08T16:20:30.910Z,7.33
2018-06-08T16:22:58.827Z,7.17
2018-06-08T16:25:27.550Z,7.10
2018-06-08T16:27:56.058Z,7.03
2018-06-08T16:30:24.108Z,7.62
2018-06-08T16:32:52.057Z,6.65
2018-06-08T16:35:20.369Z,7.35
2018-06-08T16:37:48.222Z,8.30
2018-06-08T16:40:16.453Z,6.92
2018-06-08T16:42:44.469Z,6.97
2018-06-08T16:45:12.478Z,7.65
2018-06-08T16:47:42.052Z,7.65
2018-06-08T16:50:10.200Z,7.80
2018-06-08T16:52:38.322Z,7.62
2018-06-08T16:55:06.919Z,7.50
2018-06-08T16:57:34.858Z,7.12
2018-06-08T17:00:03.014Z,6.90
2018-06-08T17:02:31.410Z,7.30
2018-06-08T17:04:59.223Z,8.45
2018-06-08T17:07:27.146Z,8.10
2018-06-08T17:09:56.076Z,7.65
2018-06-08T17:12:24.085Z,6.78
2018-06-08T17:14:52.126Z,5.70
2018-06-08T17:17:21.098Z,5.83
2018-06-08T17:19:49.988Z,5.55
2018-06-08T17:22:18.030Z,4.92
2018-06-08T17:24:46.175Z,5.10
2018-06-08T17:27:14.061Z,5.12
2018-06-08T17:29:41.960Z,5.42
2018-06-08T17:32:09.836Z,4.80
2018-06-08T17:34:38.466Z,5.17
2018-06-08T17:37:06.347Z,5.03
2018-06-08T17:39:34.356Z,5.20
2018-06-08T17:42:02.270Z,5.85
2018-06-08T17:44:30.793Z,5.90
2018-06-08T17:46:58.958Z,5.15
2018-06-08T17:49:27.257Z,5.28
2018-06-08T17:51:55.206Z,4.92
2018-06-08T17:54:23.124Z,4.78
2018-06-08T17:56:51.072Z,5.35
2018-06-08T17:59:19.684Z,5.12
2018-06-08T18:01:47.737Z,4.95
2018-06-08T18:04:15.665Z,4.90
2018-06-08T18:06:43.593Z,4.92
2018-06-08T18:09:11.546Z,5.90
2018-06-08T18:11:40.130Z,5.47
2018-06-08T18:14:08.045Z,5.20
2018-06-08T18:16:36.046Z,6.62
2018-06-08T18:19:03.802Z,5.80
2018-06-08T18:21:31.765Z,5.25
2018-06-08T18:23:59.736Z,5.28
2018-06-08T18:26:27.627Z,5.45
2018-06-08T18:28:55.441Z,5.03
2018-06-08T18:31:23.309Z,5.12
2018-06-08T18:33:51.198Z,5.83
2018-06-08T18:36:19.084Z,5.40
2018-06-08T18:38:46.948Z,5.58
2018-06-08T18:41:16.605Z,5.67
2018-06-08T18:43:44.413Z,6.28
2018-06-08T18:46:12.881Z,6.72
2018-06-08T18:48:40.768Z,6.20
2018-06-08T18:51:09.952Z,5.97
2018-06-08T18:53:37.748Z,5.67
2018-06-08T18:56:11.176Z,5.97
2018-06-08T18:58:43.426Z,6.28
2018-06-08T19:01:14.955Z,5.62
2018-06-08T19:03:45.061Z,6.10
2018-06-08T19:06:13.191Z,6.60
2018-06-08T19:08:41.272Z,5.60
2018-06-08T19:11:09.193Z,5.72
2018-06-08T19:13:39.576Z,6.10
2018-06-08T19:16:10.400Z,5.97
2018-06-08T19:18:38.763Z,6.62
2018-06-08T19:21:07.727Z,6.78
2018-06-08T19:23:36.762Z,7.60
2018-06-08T19:26:04.973Z,6.87
2018-06-08T19:28:34.956Z,7.05
2018-06-08T19:31:03.165Z,7.40
2018-06-08T19:33:32.229Z,7.80
2018-06-08T19:36:00.567Z,8.37
2018-06-08T19:38:28.786Z,8.40
2018-06-08T19:40:56.829Z,8.40
2018-06-08T19:43:25.423Z,8.03
2018-06-08T19:45:53.445Z,8.60
2018-06-08T19:48:21.604Z,7.53
2018-06-08T19:50:50.469Z,7.80
2018-06-08T19:53:18.454Z,9.00
2018-06-08T19:55:46.897Z,9.37
2018-06-08T19:58:16.334Z,8.37
2018-06-08T20:00:51.645Z,8.77
2018-06-08T20:32:25.970Z,9.83
2018-06-08T20:35:03.191Z,9.77
2018-06-08T20:37:34.105Z,10.97
2018-06-08T20:53:31.764Z,9.90
2018-06-08T22:23:54.671Z,13.30
2018-06-08T22:26:23.885Z,13.77
2018-06-08T22:28:53.173Z,14.53
2018-06-08T22:31:21.981Z,15.03
2018-06-08T22:33:49.988Z,13.50
2018-06-08T22:36:17.850Z,13.87
2018-06-08T22:38:45.876Z,13.80
2018-06-08T22:41:16.784Z,13.57
2018-06-08T22:43:44.697Z,15.27
2018-06-08T22:46:17.550Z,15.03
2018-06-08T22:48:47.955Z,14.60
2018-06-08T22:51:15.894Z,14.93
2018-06-08T22:53:45.001Z,14.80
2018-06-08T22:56:12.907Z,14.23
2018-06-08T22:58:40.761Z,14.50
2018-06-08T23:01:14.052Z,14.83
2018-06-08T23:03:41.903Z,14.50
2018-06-08T23:06:10.766Z,14.87
2018-06-08T23:08:39.355Z,14.73
2018-06-08T23:11:07.162Z,15.63
2018-06-08T23:13:35.074Z,15.70
2018-06-08T23:16:04.076Z,16.33
2018-06-08T23:18:31.912Z,15.00
2018-06-08T23:21:06.868Z,14.90
2018-06-08T23:23:53.299Z,14.37
2018-06-08T23:26:22.337Z,14.80
2018-06-08T23:28:50.224Z,16.27
2018-06-08T23:31:18.096Z,15.40
2018-06-08T23:33:45.935Z,16.50
2018-06-08T23:36:13.860Z,16.23
2018-06-08T23:38:41.701Z,15.67
2018-06-08T23:41:09.861Z,16.13
2018-06-08T23:43:37.871Z,16.53
2018-06-08T23:46:05.760Z,15.00
2018-06-08T23:48:34.993Z,15.83
2018-06-08T23:51:02.905Z,16.37
2018-06-08T23:53:30.708Z,15.03
2018-06-08T23:55:58.497Z,16.70
2018-06-08T23:58:26.294Z,17.50
